JBU3026 KPHX-KMCO
Flight info
| Callsign | JBU3026 |
|---|---|
| Flight time | 3h 33m |
| Altitude | 33000 |
| Route | ECLPS1 PHASE DCT ELP J86 LEV Y280 CHRGE PRICY4 |
| Aircraft | A20N/M-SDE2E3FGHIRWXY/LB1 |
Departure
| Time | 2026-05-07 16:16 |
|---|---|
| Airport | Phoenix Sky Harbor International Airport (KPHX) |
Arrival
| Time | 2026-05-07 19:50 |
|---|---|
| Airport | Orlando International Airport (KMCO) |
| Time | Latitude | Longitude | Altitude | Speed | Heading |
|---|---|---|---|---|---|
| 2026-05-07 15:58 | 33.43392 | -112.00923 | 1138 ft | 0 kts | 1° |
| 2026-05-07 16:06 | 33.43391 | -112.00923 | 1134 ft | 2 kts | 1° |
| 2026-05-07 16:06 | 33.43374 | -112.00921 | 1139 ft | 2 kts | 348° |
| 2026-05-07 16:06 | 33.43359 | -112.00915 | 1138 ft | 2 kts | 339° |
| 2026-05-07 16:06 | 33.43343 | -112.00911 | 1139 ft | 2 kts | 347° |
| 2026-05-07 16:07 | 33.43327 | -112.00904 | 1135 ft | 2 kts | 332° |
| 2026-05-07 16:07 | 33.43313 | -112.00893 | 1137 ft | 2 kts | 319° |
| 2026-05-07 16:07 | 33.43302 | -112.00879 | 1137 ft | 2 kts | 298° |
| 2026-05-07 16:07 | 33.43300 | -112.00871 | 1137 ft | 0 kts | 281° |
| 2026-05-07 16:09 | 33.43299 | -112.00882 | 1137 ft | 4 kts | 265° |
| 2026-05-07 16:09 | 33.43295 | -112.00936 | 1134 ft | 9 kts | 265° |
| 2026-05-07 16:10 | 33.43289 | -112.01034 | 1135 ft | 14 kts | 269° |
| 2026-05-07 16:10 | 33.43289 | -112.01153 | 1137 ft | 14 kts | 270° |
| 2026-05-07 16:10 | 33.43288 | -112.01267 | 1135 ft | 13 kts | 268° |
| 2026-05-07 16:10 | 33.43287 | -112.01373 | 1137 ft | 12 kts | 271° |
| 2026-05-07 16:11 | 33.43288 | -112.01471 | 1137 ft | 11 kts | 271° |
| 2026-05-07 16:11 | 33.43289 | -112.01561 | 1137 ft | 10 kts | 270° |
| 2026-05-07 16:11 | 33.43289 | -112.01644 | 1137 ft | 10 kts | 270° |
| 2026-05-07 16:11 | 33.43289 | -112.01720 | 1135 ft | 9 kts | 270° |
| 2026-05-07 16:12 | 33.43289 | -112.01788 | 1137 ft | 8 kts | 270° |
| 2026-05-07 16:12 | 33.43289 | -112.01848 | 1136 ft | 7 kts | 270° |
| 2026-05-07 16:12 | 33.43289 | -112.01901 | 1137 ft | 7 kts | 270° |
| 2026-05-07 16:12 | 33.43290 | -112.01975 | 1137 ft | 12 kts | 270° |
| 2026-05-07 16:13 | 33.43290 | -112.02088 | 1137 ft | 15 kts | 269° |
| 2026-05-07 16:13 | 33.43289 | -112.02205 | 1137 ft | 14 kts | 270° |
| 2026-05-07 16:13 | 33.43289 | -112.02315 | 1133 ft | 13 kts | 270° |
| 2026-05-07 16:13 | 33.43290 | -112.02418 | 1137 ft | 12 kts | 270° |
| 2026-05-07 16:14 | 33.43289 | -112.02514 | 1137 ft | 11 kts | 270° |
| 2026-05-07 16:14 | 33.43290 | -112.02603 | 1137 ft | 11 kts | 271° |
| 2026-05-07 16:14 | 33.43261 | -112.02693 | 1136 ft | 14 kts | 202° |
| 2026-05-07 16:14 | 33.43145 | -112.02699 | 1132 ft | 17 kts | 181° |
| 2026-05-07 16:15 | 33.43106 | -112.02606 | 1132 ft | 16 kts | 89° |
| 2026-05-07 16:15 | 33.43106 | -112.02315 | 1130 ft | 62 kts | 90° |
| 2026-05-07 16:15 | 33.43106 | -112.01567 | 1132 ft | 117 kts | 90° |
| 2026-05-07 16:15 | 33.43105 | -112.00399 | 1137 ft | 162 kts | 90° |
| 2026-05-07 16:16 | 33.43132 | -111.98988 | 1434 ft | 171 kts | 89° |
| 2026-05-07 16:16 | 33.43209 | -111.97546 | 1889 ft | 173 kts | 84° |
| 2026-05-07 16:16 | 33.43358 | -111.96106 | 2312 ft | 183 kts | 83° |
| 2026-05-07 16:16 | 33.43436 | -111.94503 | 2746 ft | 200 kts | 88° |
| 2026-05-07 16:17 | 33.43528 | -111.92757 | 3063 ft | 225 kts | 82° |
| 2026-05-07 16:17 | 33.43756 | -111.90787 | 3376 ft | 249 kts | 83° |
| 2026-05-07 16:17 | 33.43759 | -111.88709 | 4022 ft | 257 kts | 97° |
| 2026-05-07 16:17 | 33.43165 | -111.86679 | 4808 ft | 263 kts | 120° |
| 2026-05-07 16:18 | 33.41976 | -111.84991 | 5552 ft | 269 kts | 133° |
| 2026-05-07 16:18 | 33.40605 | -111.83437 | 6288 ft | 273 kts | 135° |
| 2026-05-07 16:18 | 33.39201 | -111.81878 | 7005 ft | 277 kts | 135° |
| 2026-05-07 16:18 | 33.37787 | -111.80290 | 7745 ft | 281 kts | 135° |
| 2026-05-07 16:19 | 33.36359 | -111.78668 | 8529 ft | 285 kts | 135° |
| 2026-05-07 16:19 | 33.34922 | -111.77024 | 9340 ft | 288 kts | 134° |
| 2026-05-07 16:19 | 33.33467 | -111.75354 | 10144 ft | 292 kts | 134° |
| 2026-05-07 16:19 | 33.31983 | -111.73645 | 10571 ft | 310 kts | 134° |
| 2026-05-07 16:20 | 33.30382 | -111.71800 | 10864 ft | 331 kts | 134° |
| 2026-05-07 16:20 | 33.28671 | -111.69829 | 11175 ft | 351 kts | 134° |
| 2026-05-07 16:20 | 33.26887 | -111.67776 | 11704 ft | 360 kts | 135° |
| 2026-05-07 16:20 | 33.25063 | -111.65681 | 12397 ft | 366 kts | 135° |
| 2026-05-07 16:21 | 33.23221 | -111.63565 | 13137 ft | 369 kts | 135° |
| 2026-05-07 16:21 | 33.21359 | -111.61426 | 13851 ft | 373 kts | 135° |
| 2026-05-07 16:21 | 33.19480 | -111.59270 | 14484 ft | 376 kts | 135° |
| 2026-05-07 16:21 | 33.17583 | -111.57093 | 15120 ft | 379 kts | 135° |
| 2026-05-07 16:22 | 33.15701 | -111.54935 | 15771 ft | 382 kts | 135° |
| 2026-05-07 16:22 | 33.13777 | -111.52729 | 16415 ft | 385 kts | 135° |
| 2026-05-07 16:22 | 33.11836 | -111.50507 | 17038 ft | 388 kts | 135° |
| 2026-05-07 16:22 | 33.09880 | -111.48268 | 17633 ft | 392 kts | 135° |
| 2026-05-07 16:23 | 33.07909 | -111.46001 | 18230 ft | 395 kts | 133° |
| 2026-05-07 16:23 | 33.06168 | -111.43462 | 18724 ft | 397 kts | 124° |
| 2026-05-07 16:23 | 33.04623 | -111.40713 | 19222 ft | 401 kts | 122° |
| 2026-05-07 16:23 | 33.03103 | -111.37911 | 19695 ft | 405 kts | 122° |
| 2026-05-07 16:24 | 33.01569 | -111.35082 | 20187 ft | 408 kts | 122° |
| 2026-05-07 16:24 | 33.00037 | -111.32270 | 20664 ft | 412 kts | 122° |
| 2026-05-07 16:24 | 32.98469 | -111.29402 | 21137 ft | 415 kts | 122° |
| 2026-05-07 16:24 | 32.96884 | -111.26509 | 21575 ft | 419 kts | 122° |
| 2026-05-07 16:25 | 32.95283 | -111.23592 | 22034 ft | 423 kts | 122° |
| 2026-05-07 16:25 | 32.93668 | -111.20654 | 22503 ft | 426 kts | 122° |
| 2026-05-07 16:25 | 32.92037 | -111.17689 | 22952 ft | 429 kts | 123° |
| 2026-05-07 16:25 | 32.90393 | -111.14704 | 23354 ft | 434 kts | 123° |
| 2026-05-07 16:26 | 32.88733 | -111.11693 | 23755 ft | 437 kts | 123° |
| 2026-05-07 16:26 | 32.87061 | -111.08664 | 24147 ft | 439 kts | 123° |
| 2026-05-07 16:26 | 32.85376 | -111.05612 | 24536 ft | 442 kts | 124° |
| 2026-05-07 16:26 | 32.83682 | -111.02548 | 24889 ft | 445 kts | 124° |
| 2026-05-07 16:27 | 32.82002 | -110.99510 | 25269 ft | 447 kts | 124° |
| 2026-05-07 16:27 | 32.80289 | -110.96416 | 25651 ft | 449 kts | 124° |
| 2026-05-07 16:27 | 32.78564 | -110.93303 | 26008 ft | 452 kts | 124° |
| 2026-05-07 16:27 | 32.76829 | -110.90174 | 26304 ft | 455 kts | 124° |
| 2026-05-07 16:28 | 32.75083 | -110.87027 | 26631 ft | 458 kts | 125° |
| 2026-05-07 16:28 | 32.73325 | -110.83863 | 26930 ft | 461 kts | 125° |
| 2026-05-07 16:28 | 32.71552 | -110.80673 | 27234 ft | 463 kts | 126° |
| 2026-05-07 16:28 | 32.69769 | -110.77469 | 27493 ft | 467 kts | 126° |
| 2026-05-07 16:29 | 32.67999 | -110.74290 | 27780 ft | 469 kts | 126° |
| 2026-05-07 16:29 | 32.66203 | -110.71043 | 28050 ft | 472 kts | 124° |
| 2026-05-07 16:29 | 32.64640 | -110.67600 | 28300 ft | 478 kts | 116° |
| 2026-05-07 16:29 | 32.63538 | -110.63847 | 28546 ft | 484 kts | 109° |
| 2026-05-07 16:30 | 32.62660 | -110.59987 | 28889 ft | 485 kts | 107° |
| 2026-05-07 16:30 | 32.61818 | -110.56110 | 29231 ft | 486 kts | 108° |
| 2026-05-07 16:30 | 32.60974 | -110.52230 | 29593 ft | 486 kts | 108° |
| 2026-05-07 16:30 | 32.60124 | -110.48347 | 29903 ft | 488 kts | 108° |
| 2026-05-07 16:31 | 32.59264 | -110.44447 | 30199 ft | 489 kts | 108° |
| 2026-05-07 16:31 | 32.58402 | -110.40547 | 30495 ft | 489 kts | 109° |
| 2026-05-07 16:31 | 32.57548 | -110.36699 | 30815 ft | 489 kts | 109° |
| 2026-05-07 16:31 | 32.56678 | -110.32788 | 31040 ft | 491 kts | 109° |
| 2026-05-07 16:32 | 32.55807 | -110.28878 | 31305 ft | 492 kts | 110° |
| 2026-05-07 16:32 | 32.54931 | -110.24951 | 31499 ft | 493 kts | 110° |
| 2026-05-07 16:32 | 32.54051 | -110.21022 | 31769 ft | 493 kts | 110° |
| 2026-05-07 16:32 | 32.53171 | -110.17091 | 32020 ft | 494 kts | 110° |
| 2026-05-07 16:33 | 32.52286 | -110.13151 | 32274 ft | 495 kts | 111° |
| 2026-05-07 16:33 | 32.51400 | -110.09211 | 32528 ft | 495 kts | 111° |
| 2026-05-07 16:33 | 32.50512 | -110.05266 | 32774 ft | 496 kts | 111° |
| 2026-05-07 16:33 | 32.49621 | -110.01313 | 32958 ft | 498 kts | 111° |
| 2026-05-07 16:34 | 32.48738 | -109.97405 | 32986 ft | 497 kts | 111° |
| 2026-05-07 16:34 | 32.46952 | -109.89510 | 32988 ft | 496 kts | 112° |
| 2026-05-07 16:35 | 32.45159 | -109.81617 | 32979 ft | 497 kts | 112° |
| 2026-05-07 16:35 | 32.43542 | -109.73622 | 32985 ft | 504 kts | 106° |
| 2026-05-07 16:36 | 32.42484 | -109.65451 | 32981 ft | 507 kts | 105° |
| 2026-05-07 16:36 | 32.41450 | -109.57189 | 32978 ft | 508 kts | 105° |
| 2026-05-07 16:37 | 32.40402 | -109.48917 | 32977 ft | 509 kts | 105° |
| 2026-05-07 16:37 | 32.39341 | -109.40621 | 32976 ft | 510 kts | 105° |
| 2026-05-07 16:38 | 32.38288 | -109.32430 | 32978 ft | 512 kts | 105° |
| 2026-05-07 16:38 | 32.37219 | -109.24165 | 32973 ft | 512 kts | 105° |
| 2026-05-07 16:39 | 32.36126 | -109.15820 | 32976 ft | 513 kts | 107° |
| 2026-05-07 16:39 | 32.34769 | -109.07559 | 32989 ft | 511 kts | 110° |
| 2026-05-07 16:40 | 32.33255 | -108.99350 | 33033 ft | 512 kts | 110° |
| 2026-05-07 16:40 | 32.31739 | -108.91121 | 33084 ft | 513 kts | 110° |
| 2026-05-07 16:41 | 32.30252 | -108.82917 | 33122 ft | 514 kts | 110° |
| 2026-05-07 16:41 | 32.28761 | -108.74643 | 33142 ft | 515 kts | 110° |
| 2026-05-07 16:42 | 32.27262 | -108.66354 | 33142 ft | 516 kts | 110° |
| 2026-05-07 16:42 | 32.25755 | -108.58061 | 33123 ft | 517 kts | 110° |
| 2026-05-07 16:43 | 32.24298 | -108.50079 | 33083 ft | 517 kts | 110° |
| 2026-05-07 16:43 | 32.22776 | -108.41773 | 33037 ft | 518 kts | 110° |
| 2026-05-07 16:44 | 32.21259 | -108.33523 | 32990 ft | 518 kts | 110° |
| 2026-05-07 16:44 | 32.19724 | -108.25211 | 32968 ft | 518 kts | 111° |
| 2026-05-07 16:45 | 32.18183 | -108.16901 | 32969 ft | 519 kts | 111° |
| 2026-05-07 16:45 | 32.16635 | -108.08584 | 32990 ft | 519 kts | 111° |
| 2026-05-07 16:46 | 32.15080 | -108.00260 | 33032 ft | 520 kts | 111° |
| 2026-05-07 16:46 | 32.13530 | -107.91993 | 33071 ft | 520 kts | 111° |
| 2026-05-07 16:47 | 32.11962 | -107.83666 | 33093 ft | 520 kts | 111° |
| 2026-05-07 16:47 | 32.10388 | -107.75339 | 33105 ft | 520 kts | 111° |
| 2026-05-07 16:48 | 32.08809 | -107.67011 | 33090 ft | 521 kts | 111° |
| 2026-05-07 16:48 | 32.07232 | -107.58729 | 33048 ft | 521 kts | 111° |
| 2026-05-07 16:49 | 32.05637 | -107.50394 | 33018 ft | 521 kts | 111° |
| 2026-05-07 16:49 | 32.04040 | -107.42060 | 32974 ft | 521 kts | 111° |
| 2026-05-07 16:50 | 32.02436 | -107.33729 | 32956 ft | 522 kts | 111° |
| 2026-05-07 16:50 | 32.00835 | -107.25449 | 32957 ft | 522 kts | 111° |
| 2026-05-07 16:51 | 31.99219 | -107.17121 | 32956 ft | 522 kts | 111° |
| 2026-05-07 16:51 | 31.97596 | -107.08783 | 32971 ft | 522 kts | 112° |
| 2026-05-07 16:52 | 31.95966 | -107.00448 | 33028 ft | 523 kts | 112° |
| 2026-05-07 16:52 | 31.94330 | -106.92109 | 33082 ft | 523 kts | 112° |
| 2026-05-07 16:53 | 31.92700 | -106.83828 | 33134 ft | 523 kts | 112° |
| 2026-05-07 16:53 | 31.91052 | -106.75490 | 33157 ft | 523 kts | 112° |
| 2026-05-07 16:54 | 31.89400 | -106.67159 | 33154 ft | 523 kts | 112° |
| 2026-05-07 16:54 | 31.87742 | -106.58830 | 33156 ft | 522 kts | 112° |
| 2026-05-07 16:55 | 31.86095 | -106.50581 | 33147 ft | 521 kts | 112° |
| 2026-05-07 16:55 | 31.84434 | -106.42307 | 33160 ft | 520 kts | 112° |
| 2026-05-07 16:56 | 31.82767 | -106.34027 | 33151 ft | 521 kts | 112° |
| 2026-05-07 16:56 | 31.80083 | -106.21689 | 33119 ft | 517 kts | 116° |
| 2026-05-07 16:57 | 31.78063 | -106.13648 | 33090 ft | 516 kts | 117° |
| 2026-05-07 16:57 | 31.76013 | -106.05560 | 33046 ft | 516 kts | 116° |
| 2026-05-07 16:58 | 31.73984 | -105.97465 | 33013 ft | 517 kts | 116° |
| 2026-05-07 16:58 | 31.71963 | -105.89360 | 33018 ft | 517 kts | 116° |
| 2026-05-07 16:59 | 31.69937 | -105.81243 | 33023 ft | 518 kts | 116° |
| 2026-05-07 16:59 | 31.67920 | -105.73192 | 33026 ft | 517 kts | 116° |
| 2026-05-07 17:00 | 31.65884 | -105.65093 | 33028 ft | 517 kts | 117° |
| 2026-05-07 17:00 | 31.63842 | -105.56996 | 33035 ft | 517 kts | 117° |
| 2026-05-07 17:01 | 31.61794 | -105.48903 | 33038 ft | 518 kts | 117° |
| 2026-05-07 17:01 | 31.59738 | -105.40799 | 33036 ft | 518 kts | 117° |
| 2026-05-07 17:02 | 31.57694 | -105.32765 | 33040 ft | 518 kts | 117° |
| 2026-05-07 17:02 | 31.55630 | -105.24679 | 33050 ft | 518 kts | 117° |
| 2026-05-07 17:03 | 31.53563 | -105.16602 | 33050 ft | 517 kts | 117° |
| 2026-05-07 17:03 | 31.51490 | -105.08526 | 33053 ft | 517 kts | 117° |
| 2026-05-07 17:04 | 31.49427 | -105.00512 | 33056 ft | 517 kts | 117° |
| 2026-05-07 17:04 | 31.47344 | -104.92441 | 32980 ft | 517 kts | 115° |
| 2026-05-07 17:05 | 31.45307 | -104.84525 | 33074 ft | 500 kts | 116° |
| 2026-05-07 17:05 | 31.43297 | -104.76772 | 33077 ft | 496 kts | 116° |
| 2026-05-07 17:06 | 31.41290 | -104.69097 | 33083 ft | 497 kts | 116° |
| 2026-05-07 17:06 | 31.39264 | -104.61366 | 33082 ft | 497 kts | 116° |
| 2026-05-07 17:07 | 31.37235 | -104.53620 | 33088 ft | 498 kts | 116° |
| 2026-05-07 17:07 | 31.35204 | -104.45876 | 33088 ft | 498 kts | 116° |
| 2026-05-07 17:08 | 31.33167 | -104.38135 | 33088 ft | 498 kts | 116° |
| 2026-05-07 17:08 | 31.31137 | -104.30443 | 33090 ft | 498 kts | 116° |
| 2026-05-07 17:09 | 31.29090 | -104.22706 | 33093 ft | 499 kts | 116° |
| 2026-05-07 17:09 | 31.27035 | -104.14962 | 33092 ft | 499 kts | 116° |
| 2026-05-07 17:10 | 31.24974 | -104.07217 | 33091 ft | 499 kts | 116° |
| 2026-05-07 17:10 | 31.22909 | -103.99475 | 33085 ft | 499 kts | 116° |
| 2026-05-07 17:11 | 31.20838 | -103.91730 | 33094 ft | 499 kts | 116° |
| 2026-05-07 17:11 | 31.18779 | -103.84051 | 33093 ft | 499 kts | 116° |
| 2026-05-07 17:12 | 31.16699 | -103.76317 | 33111 ft | 499 kts | 116° |
| 2026-05-07 17:12 | 31.14617 | -103.68594 | 33119 ft | 499 kts | 116° |
| 2026-05-07 17:13 | 31.12530 | -103.60872 | 33124 ft | 499 kts | 116° |
| 2026-05-07 17:13 | 31.10451 | -103.53205 | 33117 ft | 499 kts | 116° |
| 2026-05-07 17:14 | 31.08355 | -103.45492 | 33106 ft | 499 kts | 116° |
| 2026-05-07 17:14 | 31.06255 | -103.37785 | 33088 ft | 499 kts | 116° |
| 2026-05-07 17:15 | 31.04152 | -103.30085 | 33080 ft | 498 kts | 116° |
| 2026-05-07 17:15 | 31.02057 | -103.22436 | 33104 ft | 498 kts | 116° |
| 2026-05-07 17:16 | 30.99944 | -103.14742 | 33133 ft | 498 kts | 116° |
| 2026-05-07 17:16 | 30.97828 | -103.07056 | 33159 ft | 498 kts | 116° |
| 2026-05-07 17:17 | 30.95738 | -102.99361 | 33179 ft | 502 kts | 112° |
| 2026-05-07 17:17 | 30.94550 | -102.91251 | 33184 ft | 511 kts | 105° |
| 2026-05-07 17:18 | 30.93698 | -102.83082 | 33181 ft | 512 kts | 104° |
| 2026-05-07 17:18 | 30.92900 | -102.74836 | 33159 ft | 512 kts | 104° |
| 2026-05-07 17:19 | 30.92085 | -102.66593 | 33134 ft | 512 kts | 104° |
| 2026-05-07 17:19 | 30.91248 | -102.58360 | 33114 ft | 512 kts | 104° |
| 2026-05-07 17:20 | 30.90404 | -102.50186 | 33091 ft | 512 kts | 104° |
| 2026-05-07 17:20 | 30.89549 | -102.41953 | 33092 ft | 512 kts | 104° |
| 2026-05-07 17:21 | 30.88690 | -102.33722 | 33094 ft | 512 kts | 104° |
| 2026-05-07 17:21 | 30.87826 | -102.25487 | 33095 ft | 513 kts | 104° |
| 2026-05-07 17:22 | 30.86962 | -102.17310 | 33094 ft | 513 kts | 104° |
| 2026-05-07 17:22 | 30.86089 | -102.09080 | 33096 ft | 512 kts | 104° |
| 2026-05-07 17:23 | 30.85208 | -102.00850 | 33096 ft | 512 kts | 104° |
| 2026-05-07 17:23 | 30.84322 | -101.92622 | 33096 ft | 512 kts | 104° |
| 2026-05-07 17:24 | 30.83432 | -101.84399 | 33102 ft | 512 kts | 104° |
| 2026-05-07 17:24 | 30.82542 | -101.76234 | 33106 ft | 512 kts | 104° |
| 2026-05-07 17:25 | 30.81642 | -101.68015 | 33105 ft | 512 kts | 104° |
| 2026-05-07 17:25 | 30.80737 | -101.59796 | 33111 ft | 512 kts | 104° |
| 2026-05-07 17:26 | 30.79826 | -101.51584 | 33136 ft | 512 kts | 104° |
| 2026-05-07 17:26 | 30.78910 | -101.43374 | 33157 ft | 512 kts | 104° |
| 2026-05-07 17:27 | 30.77996 | -101.35222 | 33183 ft | 512 kts | 104° |
| 2026-05-07 17:27 | 30.77072 | -101.27021 | 33202 ft | 512 kts | 104° |
| 2026-05-07 17:28 | 30.76141 | -101.18818 | 33205 ft | 511 kts | 104° |
| 2026-05-07 17:28 | 30.75206 | -101.10623 | 33201 ft | 511 kts | 105° |
| 2026-05-07 17:29 | 30.74273 | -101.02493 | 33179 ft | 511 kts | 105° |
| 2026-05-07 17:29 | 30.73328 | -100.94309 | 33156 ft | 511 kts | 105° |
| 2026-05-07 17:30 | 30.72380 | -100.86134 | 33103 ft | 510 kts | 105° |
| 2026-05-07 17:30 | 30.71427 | -100.77969 | 33111 ft | 509 kts | 105° |
| 2026-05-07 17:31 | 30.70472 | -100.69825 | 33109 ft | 508 kts | 104° |
| 2026-05-07 17:31 | 30.69520 | -100.61751 | 33111 ft | 507 kts | 104° |
| 2026-05-07 17:32 | 30.68557 | -100.53634 | 33111 ft | 507 kts | 104° |
| 2026-05-07 17:32 | 30.67755 | -100.46906 | 33106 ft | 506 kts | 104° |
| 2026-05-07 17:33 | 30.66622 | -100.37452 | 33110 ft | 506 kts | 104° |
| 2026-05-07 17:33 | 30.65652 | -100.29408 | 33109 ft | 506 kts | 104° |
| 2026-05-07 17:34 | 30.64670 | -100.21305 | 33111 ft | 507 kts | 104° |
| 2026-05-07 17:34 | 30.63680 | -100.13184 | 33116 ft | 508 kts | 104° |
| 2026-05-07 17:35 | 30.62684 | -100.05052 | 33135 ft | 509 kts | 104° |
| 2026-05-07 17:35 | 30.61682 | -99.96907 | 33157 ft | 510 kts | 104° |
| 2026-05-07 17:36 | 30.60679 | -99.88799 | 33176 ft | 511 kts | 104° |
| 2026-05-07 17:36 | 30.59662 | -99.80632 | 33189 ft | 512 kts | 104° |
| 2026-05-07 17:37 | 30.58633 | -99.72444 | 33192 ft | 513 kts | 104° |
| 2026-05-07 17:37 | 30.57596 | -99.64258 | 33160 ft | 514 kts | 104° |
| 2026-05-07 17:38 | 30.56559 | -99.56106 | 33146 ft | 515 kts | 104° |
| 2026-05-07 17:38 | 30.55508 | -99.47883 | 33136 ft | 515 kts | 104° |
| 2026-05-07 17:39 | 30.54451 | -99.39655 | 33123 ft | 516 kts | 104° |
| 2026-05-07 17:39 | 30.53388 | -99.31418 | 33117 ft | 517 kts | 104° |
| 2026-05-07 17:40 | 30.52324 | -99.23225 | 33115 ft | 517 kts | 104° |
| 2026-05-07 17:40 | 30.51250 | -99.14985 | 33121 ft | 518 kts | 104° |
| 2026-05-07 17:41 | 30.50168 | -99.06734 | 33119 ft | 517 kts | 104° |
| 2026-05-07 17:41 | 30.49081 | -98.98482 | 33125 ft | 517 kts | 104° |
| 2026-05-07 17:42 | 30.47989 | -98.90237 | 33127 ft | 517 kts | 104° |
| 2026-05-07 17:42 | 30.46900 | -98.82053 | 33136 ft | 517 kts | 104° |
| 2026-05-07 17:43 | 30.45800 | -98.73823 | 33131 ft | 517 kts | 104° |
| 2026-05-07 17:43 | 30.44694 | -98.65600 | 33138 ft | 517 kts | 104° |
| 2026-05-07 17:44 | 30.43583 | -98.57371 | 33139 ft | 516 kts | 104° |
| 2026-05-07 17:44 | 30.42477 | -98.49216 | 33143 ft | 516 kts | 104° |
| 2026-05-07 17:45 | 30.41359 | -98.41008 | 33147 ft | 516 kts | 104° |
| 2026-05-07 17:45 | 30.40234 | -98.32802 | 33155 ft | 515 kts | 104° |
| 2026-05-07 17:46 | 30.39105 | -98.24604 | 33143 ft | 516 kts | 104° |
| 2026-05-07 17:46 | 30.37970 | -98.16408 | 33146 ft | 516 kts | 104° |
| 2026-05-07 17:47 | 30.36835 | -98.08243 | 33157 ft | 517 kts | 104° |
| 2026-05-07 17:47 | 30.35688 | -98.00029 | 33154 ft | 517 kts | 104° |
| 2026-05-07 17:48 | 30.34534 | -97.91805 | 33157 ft | 518 kts | 104° |
| 2026-05-07 17:48 | 30.33374 | -97.83571 | 33147 ft | 518 kts | 104° |
| 2026-05-07 17:49 | 30.32209 | -97.75341 | 33127 ft | 519 kts | 105° |
| 2026-05-07 17:49 | 30.31043 | -97.67150 | 33126 ft | 519 kts | 105° |
| 2026-05-07 17:50 | 30.29865 | -97.58910 | 33125 ft | 520 kts | 105° |
| 2026-05-07 17:50 | 30.28680 | -97.50659 | 33125 ft | 520 kts | 105° |
| 2026-05-07 17:51 | 30.27490 | -97.42407 | 33121 ft | 520 kts | 105° |
| 2026-05-07 17:51 | 30.26294 | -97.34158 | 33116 ft | 520 kts | 105° |
| 2026-05-07 17:52 | 30.25100 | -97.25956 | 33135 ft | 520 kts | 105° |
| 2026-05-07 17:52 | 30.23894 | -97.17708 | 33149 ft | 521 kts | 105° |
| 2026-05-07 17:53 | 30.22682 | -97.09457 | 33163 ft | 521 kts | 105° |
| 2026-05-07 17:53 | 30.21463 | -97.01200 | 33162 ft | 521 kts | 105° |
| 2026-05-07 17:54 | 30.20446 | -96.94342 | 33159 ft | 521 kts | 105° |
| 2026-05-07 17:54 | 30.19017 | -96.84749 | 33151 ft | 521 kts | 105° |
| 2026-05-07 17:55 | 30.17782 | -96.76494 | 33095 ft | 522 kts | 105° |
| 2026-05-07 17:55 | 30.16541 | -96.68233 | 33036 ft | 522 kts | 105° |
| 2026-05-07 17:56 | 30.15504 | -96.61364 | 32983 ft | 522 kts | 105° |
| 2026-05-07 17:56 | 30.14051 | -96.51770 | 32930 ft | 522 kts | 105° |
| 2026-05-07 17:57 | 30.12999 | -96.44856 | 32919 ft | 522 kts | 105° |
| 2026-05-07 17:57 | 30.11533 | -96.35271 | 32909 ft | 521 kts | 105° |
| 2026-05-07 17:58 | 30.10481 | -96.28421 | 32903 ft | 522 kts | 105° |
| 2026-05-07 17:58 | 30.09209 | -96.20171 | 32890 ft | 522 kts | 105° |
| 2026-05-07 17:59 | 30.07933 | -96.11925 | 32915 ft | 522 kts | 105° |
| 2026-05-07 17:59 | 30.06652 | -96.03683 | 32955 ft | 521 kts | 105° |
| 2026-05-07 18:00 | 30.05375 | -95.95508 | 32993 ft | 521 kts | 105° |
| 2026-05-07 18:00 | 30.04084 | -95.87272 | 33010 ft | 522 kts | 105° |
| 2026-05-07 18:01 | 30.02786 | -95.79030 | 33034 ft | 522 kts | 105° |
| 2026-05-07 18:01 | 30.01483 | -95.70792 | 33064 ft | 522 kts | 105° |
| 2026-05-07 18:02 | 29.99531 | -95.58505 | 33081 ft | 521 kts | 105° |
| 2026-05-07 18:03 | 29.98217 | -95.50281 | 33084 ft | 521 kts | 105° |
| 2026-05-07 18:03 | 29.96898 | -95.42059 | 33070 ft | 522 kts | 105° |
| 2026-05-07 18:04 | 29.95585 | -95.33836 | 33073 ft | 522 kts | 105° |
| 2026-05-07 18:04 | 29.94461 | -95.25540 | 33072 ft | 524 kts | 103° |
| 2026-05-07 18:05 | 29.93430 | -95.17288 | 33068 ft | 524 kts | 103° |
| 2026-05-07 18:05 | 29.92377 | -95.08976 | 33062 ft | 524 kts | 103° |
| 2026-05-07 18:06 | 29.91301 | -95.00674 | 33057 ft | 524 kts | 103° |
| 2026-05-07 18:06 | 29.90211 | -94.92377 | 33060 ft | 524 kts | 103° |
| 2026-05-07 18:07 | 29.89121 | -94.84126 | 33054 ft | 524 kts | 103° |
| 2026-05-07 18:07 | 29.88020 | -94.75824 | 33055 ft | 524 kts | 103° |
| 2026-05-07 18:08 | 29.86914 | -94.67525 | 33055 ft | 524 kts | 103° |
| 2026-05-07 18:08 | 29.85803 | -94.59226 | 33053 ft | 524 kts | 103° |
| 2026-05-07 18:09 | 29.84686 | -94.50926 | 33060 ft | 524 kts | 104° |
| 2026-05-07 18:09 | 29.83572 | -94.42686 | 33050 ft | 524 kts | 104° |
| 2026-05-07 18:10 | 29.82446 | -94.34398 | 33055 ft | 524 kts | 104° |
| 2026-05-07 18:10 | 29.81314 | -94.26108 | 33048 ft | 524 kts | 104° |
| 2026-05-07 18:11 | 29.80177 | -94.17826 | 33044 ft | 524 kts | 104° |
| 2026-05-07 18:11 | 29.79035 | -94.09545 | 33045 ft | 523 kts | 104° |
| 2026-05-07 18:12 | 29.77897 | -94.01326 | 33037 ft | 523 kts | 104° |
| 2026-05-07 18:12 | 29.76747 | -93.93065 | 33042 ft | 523 kts | 104° |
| 2026-05-07 18:13 | 29.75593 | -93.84807 | 33043 ft | 522 kts | 104° |
| 2026-05-07 18:13 | 29.74434 | -93.76562 | 33042 ft | 522 kts | 104° |
| 2026-05-07 18:14 | 29.73278 | -93.68367 | 33044 ft | 522 kts | 104° |
| 2026-05-07 18:14 | 29.72110 | -93.60134 | 33048 ft | 522 kts | 104° |
| 2026-05-07 18:15 | 29.70937 | -93.51897 | 33047 ft | 521 kts | 104° |
| 2026-05-07 18:15 | 29.69760 | -93.43670 | 33047 ft | 521 kts | 104° |
| 2026-05-07 18:16 | 29.68577 | -93.35445 | 33042 ft | 521 kts | 104° |
| 2026-05-07 18:16 | 29.67389 | -93.27217 | 33046 ft | 521 kts | 104° |
| 2026-05-07 18:17 | 29.66206 | -93.19055 | 33045 ft | 521 kts | 104° |
| 2026-05-07 18:17 | 29.65007 | -93.10832 | 33043 ft | 521 kts | 104° |
| 2026-05-07 18:18 | 29.63805 | -93.02614 | 33044 ft | 521 kts | 104° |
| 2026-05-07 18:18 | 29.62597 | -92.94395 | 33041 ft | 522 kts | 104° |
| 2026-05-07 18:19 | 29.61392 | -92.86236 | 33037 ft | 521 kts | 104° |
| 2026-05-07 18:19 | 29.60173 | -92.78021 | 33035 ft | 521 kts | 104° |
| 2026-05-07 18:20 | 29.58950 | -92.69815 | 33037 ft | 521 kts | 104° |
| 2026-05-07 18:20 | 29.57722 | -92.61615 | 33034 ft | 521 kts | 104° |
| 2026-05-07 18:21 | 29.56498 | -92.53476 | 33033 ft | 520 kts | 104° |
| 2026-05-07 18:21 | 29.55261 | -92.45284 | 33033 ft | 520 kts | 104° |
| 2026-05-07 18:22 | 29.54021 | -92.37106 | 33037 ft | 520 kts | 104° |
| 2026-05-07 18:22 | 29.52776 | -92.28931 | 33036 ft | 520 kts | 104° |
| 2026-05-07 18:23 | 29.51527 | -92.20760 | 33038 ft | 519 kts | 104° |
| 2026-05-07 18:23 | 29.50282 | -92.12655 | 33036 ft | 519 kts | 105° |
| 2026-05-07 18:24 | 29.49024 | -92.04499 | 33037 ft | 519 kts | 105° |
| 2026-05-07 18:24 | 29.47761 | -91.96348 | 33036 ft | 519 kts | 105° |
| 2026-05-07 18:25 | 29.46493 | -91.88198 | 33034 ft | 519 kts | 105° |
| 2026-05-07 18:25 | 29.45229 | -91.80101 | 33032 ft | 519 kts | 105° |
| 2026-05-07 18:26 | 29.43953 | -91.71965 | 33033 ft | 519 kts | 105° |
| 2026-05-07 18:26 | 29.42670 | -91.63821 | 33029 ft | 519 kts | 105° |
| 2026-05-07 18:27 | 29.41384 | -91.55685 | 33033 ft | 518 kts | 105° |
| 2026-05-07 18:27 | 29.40092 | -91.47549 | 33028 ft | 518 kts | 105° |
| 2026-05-07 18:28 | 29.38806 | -91.39478 | 33030 ft | 518 kts | 105° |
| 2026-05-07 18:28 | 29.37506 | -91.31361 | 33026 ft | 518 kts | 105° |
| 2026-05-07 18:29 | 29.36202 | -91.23245 | 33028 ft | 518 kts | 105° |
| 2026-05-07 18:29 | 29.34903 | -91.15196 | 33026 ft | 517 kts | 105° |
| 2026-05-07 18:30 | 29.33636 | -91.07373 | 33026 ft | 517 kts | 105° |
| 2026-05-07 18:30 | 29.32317 | -90.99264 | 33025 ft | 517 kts | 105° |
| 2026-05-07 18:31 | 29.30994 | -90.91161 | 33027 ft | 518 kts | 105° |
| 2026-05-07 18:31 | 29.29666 | -90.83058 | 33023 ft | 517 kts | 105° |
| 2026-05-07 18:32 | 29.28342 | -90.75014 | 33026 ft | 518 kts | 105° |
| 2026-05-07 18:32 | 29.27004 | -90.66915 | 33026 ft | 517 kts | 105° |
| 2026-05-07 18:33 | 29.25661 | -90.58817 | 33025 ft | 518 kts | 105° |
| 2026-05-07 18:33 | 29.24312 | -90.50717 | 33022 ft | 518 kts | 106° |
| 2026-05-07 18:34 | 29.22959 | -90.42621 | 33024 ft | 518 kts | 106° |
| 2026-05-07 18:34 | 29.21610 | -90.34583 | 33023 ft | 518 kts | 106° |
| 2026-05-07 18:35 | 29.20247 | -90.26489 | 33020 ft | 518 kts | 106° |
| 2026-05-07 18:35 | 29.18878 | -90.18393 | 33023 ft | 518 kts | 105° |
| 2026-05-07 18:36 | 29.17500 | -90.10307 | 33022 ft | 517 kts | 107° |
| 2026-05-07 18:36 | 29.15953 | -90.02337 | 33016 ft | 516 kts | 108° |
| 2026-05-07 18:37 | 29.14293 | -89.94350 | 33018 ft | 516 kts | 108° |
| 2026-05-07 18:37 | 29.12633 | -89.86363 | 33018 ft | 516 kts | 108° |
| 2026-05-07 18:38 | 29.10987 | -89.78375 | 33018 ft | 516 kts | 108° |
| 2026-05-07 18:38 | 29.09356 | -89.70443 | 33019 ft | 516 kts | 108° |
| 2026-05-07 18:39 | 29.07710 | -89.62453 | 33018 ft | 516 kts | 108° |
| 2026-05-07 18:39 | 29.06058 | -89.54469 | 33021 ft | 516 kts | 108° |
| 2026-05-07 18:40 | 29.04414 | -89.46545 | 33019 ft | 516 kts | 108° |
| 2026-05-07 18:40 | 29.02752 | -89.38567 | 33021 ft | 516 kts | 108° |
| 2026-05-07 18:41 | 29.01085 | -89.30585 | 33021 ft | 516 kts | 108° |
| 2026-05-07 18:41 | 28.99413 | -89.22608 | 33021 ft | 516 kts | 108° |
| 2026-05-07 18:42 | 28.97737 | -89.14637 | 33023 ft | 516 kts | 108° |
| 2026-05-07 18:42 | 28.96067 | -89.06717 | 33022 ft | 517 kts | 108° |
| 2026-05-07 18:43 | 28.94381 | -88.98743 | 33026 ft | 516 kts | 108° |
| 2026-05-07 18:43 | 28.92691 | -88.90776 | 33022 ft | 516 kts | 108° |
| 2026-05-07 18:44 | 28.90995 | -88.82812 | 33027 ft | 516 kts | 108° |
| 2026-05-07 18:44 | 28.89297 | -88.74855 | 33027 ft | 516 kts | 108° |
| 2026-05-07 18:45 | 28.87510 | -88.66990 | 33031 ft | 514 kts | 111° |
| 2026-05-07 18:45 | 28.85374 | -88.59221 | 33029 ft | 513 kts | 112° |
| 2026-05-07 18:46 | 28.83163 | -88.51488 | 33029 ft | 513 kts | 112° |
| 2026-05-07 18:46 | 28.80976 | -88.43749 | 33030 ft | 513 kts | 112° |
| 2026-05-07 18:47 | 28.78828 | -88.36061 | 33030 ft | 513 kts | 112° |
| 2026-05-07 18:47 | 28.76669 | -88.28321 | 33028 ft | 513 kts | 112° |
| 2026-05-07 18:48 | 28.74505 | -88.20579 | 33031 ft | 512 kts | 112° |
| 2026-05-07 18:48 | 28.72336 | -88.12848 | 33028 ft | 512 kts | 112° |
| 2026-05-07 18:49 | 28.70180 | -88.05181 | 33029 ft | 512 kts | 112° |
| 2026-05-07 18:49 | 28.68006 | -87.97471 | 33031 ft | 511 kts | 112° |
| 2026-05-07 18:50 | 28.65827 | -87.89763 | 33030 ft | 511 kts | 112° |
| 2026-05-07 18:50 | 28.63647 | -87.82069 | 33032 ft | 510 kts | 112° |
| 2026-05-07 18:51 | 28.61479 | -87.74436 | 33030 ft | 510 kts | 112° |
| 2026-05-07 18:51 | 28.59293 | -87.66758 | 33032 ft | 510 kts | 112° |
| 2026-05-07 18:52 | 28.57106 | -87.59094 | 33030 ft | 509 kts | 112° |
| 2026-05-07 18:52 | 28.54914 | -87.51433 | 33033 ft | 509 kts | 112° |
| 2026-05-07 18:53 | 28.52720 | -87.43780 | 33043 ft | 509 kts | 112° |
| 2026-05-07 18:53 | 28.50538 | -87.36189 | 33031 ft | 508 kts | 112° |
| 2026-05-07 18:54 | 28.48340 | -87.28558 | 33033 ft | 508 kts | 112° |
| 2026-05-07 18:54 | 28.46137 | -87.20930 | 33041 ft | 508 kts | 112° |
| 2026-05-07 18:55 | 28.43931 | -87.13308 | 33019 ft | 507 kts | 112° |
| 2026-05-07 18:55 | 28.41737 | -87.05748 | 33038 ft | 507 kts | 112° |
| 2026-05-07 18:56 | 28.39527 | -86.98146 | 33034 ft | 507 kts | 112° |
| 2026-05-07 18:56 | 28.37314 | -86.90553 | 33032 ft | 506 kts | 112° |
| 2026-05-07 18:57 | 28.35099 | -86.82972 | 33034 ft | 506 kts | 112° |
| 2026-05-07 18:57 | 28.32897 | -86.75452 | 33039 ft | 505 kts | 112° |
| 2026-05-07 18:58 | 28.30679 | -86.67884 | 33036 ft | 505 kts | 111° |
| 2026-05-07 18:58 | 28.28474 | -86.60323 | 33031 ft | 505 kts | 111° |
| 2026-05-07 18:59 | 28.26267 | -86.52764 | 33030 ft | 505 kts | 111° |
| 2026-05-07 18:59 | 28.24056 | -86.45211 | 33031 ft | 504 kts | 111° |
| 2026-05-07 19:00 | 28.21857 | -86.37716 | 33038 ft | 504 kts | 111° |
| 2026-05-07 19:00 | 28.19637 | -86.30174 | 33030 ft | 504 kts | 111° |
| 2026-05-07 19:01 | 28.17416 | -86.22640 | 33039 ft | 503 kts | 111° |
| 2026-05-07 19:01 | 28.15200 | -86.15142 | 33046 ft | 501 kts | 111° |
| 2026-05-07 19:02 | 28.12995 | -86.07702 | 33037 ft | 501 kts | 111° |
| 2026-05-07 19:02 | 28.10774 | -86.00221 | 33038 ft | 501 kts | 111° |
| 2026-05-07 19:03 | 28.08547 | -85.92738 | 33042 ft | 501 kts | 111° |
| 2026-05-07 19:03 | 28.06317 | -85.85262 | 33037 ft | 501 kts | 111° |
| 2026-05-07 19:04 | 28.04083 | -85.77788 | 33043 ft | 501 kts | 111° |
| 2026-05-07 19:04 | 28.01861 | -85.70368 | 33039 ft | 501 kts | 111° |
| 2026-05-07 19:05 | 27.99617 | -85.62895 | 33039 ft | 501 kts | 111° |
| 2026-05-07 19:05 | 27.97370 | -85.55427 | 33039 ft | 502 kts | 111° |
| 2026-05-07 19:06 | 27.95118 | -85.47959 | 33043 ft | 502 kts | 111° |
| 2026-05-07 19:06 | 27.91747 | -85.36813 | 33044 ft | 502 kts | 111° |
| 2026-05-07 19:07 | 27.89483 | -85.29346 | 33039 ft | 502 kts | 111° |
| 2026-05-07 19:07 | 27.87761 | -85.21685 | 33043 ft | 504 kts | 103° |
| 2026-05-07 19:08 | 27.86425 | -85.13906 | 33040 ft | 505 kts | 102° |
| 2026-05-07 19:08 | 27.85119 | -85.06168 | 33040 ft | 505 kts | 102° |
| 2026-05-07 19:09 | 27.83804 | -84.98379 | 33039 ft | 505 kts | 102° |
| 2026-05-07 19:09 | 27.82486 | -84.90593 | 33039 ft | 505 kts | 102° |
| 2026-05-07 19:10 | 27.81388 | -84.82768 | 33038 ft | 506 kts | 92° |
| 2026-05-07 19:10 | 27.81609 | -84.74885 | 33041 ft | 506 kts | 86° |
| 2026-05-07 19:11 | 27.82012 | -84.66954 | 33040 ft | 506 kts | 86° |
| 2026-05-07 19:11 | 27.82399 | -84.59019 | 33047 ft | 506 kts | 86° |
| 2026-05-07 19:12 | 27.82775 | -84.51087 | 33044 ft | 506 kts | 86° |
| 2026-05-07 19:12 | 27.83142 | -84.43209 | 33046 ft | 506 kts | 86° |
| 2026-05-07 19:13 | 27.83506 | -84.35274 | 33043 ft | 506 kts | 86° |
| 2026-05-07 19:13 | 27.83865 | -84.27341 | 33042 ft | 506 kts | 87° |
| 2026-05-07 19:14 | 27.84220 | -84.19406 | 33042 ft | 506 kts | 87° |
| 2026-05-07 19:14 | 27.84568 | -84.11524 | 33045 ft | 506 kts | 87° |
| 2026-05-07 19:15 | 27.84914 | -84.03592 | 33045 ft | 506 kts | 87° |
| 2026-05-07 19:15 | 27.85255 | -83.95653 | 33045 ft | 506 kts | 87° |
| 2026-05-07 19:16 | 27.85592 | -83.87703 | 33047 ft | 510 kts | 87° |
| 2026-05-07 19:16 | 27.85929 | -83.79643 | 33046 ft | 515 kts | 87° |
| 2026-05-07 19:17 | 27.86261 | -83.71606 | 33050 ft | 515 kts | 87° |
| 2026-05-07 19:17 | 27.86589 | -83.63524 | 33046 ft | 515 kts | 87° |
| 2026-05-07 19:18 | 27.86912 | -83.55456 | 32812 ft | 511 kts | 87° |
| 2026-05-07 19:18 | 27.87072 | -83.51432 | 31974 ft | 515 kts | 87° |
| 2026-05-07 19:18 | 27.87232 | -83.47361 | 30981 ft | 522 kts | 87° |
| 2026-05-07 19:19 | 27.87391 | -83.43292 | 30086 ft | 527 kts | 87° |
| 2026-05-07 19:19 | 27.87552 | -83.39145 | 29086 ft | 530 kts | 87° |
| 2026-05-07 19:19 | 27.87712 | -83.34977 | 28147 ft | 531 kts | 87° |
| 2026-05-07 19:19 | 27.87871 | -83.30805 | 27234 ft | 532 kts | 87° |
| 2026-05-07 19:20 | 27.88021 | -83.26628 | 26371 ft | 531 kts | 88° |
| 2026-05-07 19:20 | 27.88066 | -83.22474 | 25766 ft | 525 kts | 90° |
| 2026-05-07 19:20 | 27.88071 | -83.18388 | 25375 ft | 513 kts | 90° |
| 2026-05-07 19:20 | 27.88071 | -83.14402 | 25045 ft | 501 kts | 90° |
| 2026-05-07 19:21 | 27.88072 | -83.10553 | 24729 ft | 493 kts | 90° |
| 2026-05-07 19:21 | 27.88074 | -83.06687 | 24410 ft | 491 kts | 90° |
| 2026-05-07 19:21 | 27.88077 | -83.02835 | 24090 ft | 490 kts | 90° |
| 2026-05-07 19:21 | 27.88079 | -82.98995 | 23774 ft | 487 kts | 90° |
| 2026-05-07 19:22 | 27.88080 | -82.95178 | 23423 ft | 484 kts | 90° |
| 2026-05-07 19:22 | 27.88080 | -82.91383 | 23093 ft | 482 kts | 90° |
| 2026-05-07 19:22 | 27.88080 | -82.87613 | 22784 ft | 479 kts | 90° |
| 2026-05-07 19:22 | 27.88078 | -82.83857 | 22478 ft | 476 kts | 90° |
| 2026-05-07 19:23 | 27.88076 | -82.80171 | 22161 ft | 474 kts | 90° |
| 2026-05-07 19:23 | 27.88073 | -82.76455 | 21850 ft | 471 kts | 90° |
| 2026-05-07 19:23 | 27.88068 | -82.72764 | 21544 ft | 469 kts | 90° |
| 2026-05-07 19:23 | 27.88063 | -82.69086 | 21238 ft | 467 kts | 90° |
| 2026-05-07 19:24 | 27.88039 | -82.65426 | 20985 ft | 465 kts | 90° |
| 2026-05-07 19:24 | 27.87990 | -82.61787 | 20635 ft | 461 kts | 91° |
| 2026-05-07 19:24 | 27.87935 | -82.58177 | 20320 ft | 459 kts | 91° |
| 2026-05-07 19:24 | 27.87881 | -82.54579 | 20022 ft | 457 kts | 90° |
| 2026-05-07 19:25 | 27.87826 | -82.50999 | 19726 ft | 454 kts | 90° |
| 2026-05-07 19:25 | 27.87771 | -82.47506 | 19496 ft | 443 kts | 90° |
| 2026-05-07 19:25 | 27.87720 | -82.44080 | 19281 ft | 429 kts | 90° |
| 2026-05-07 19:25 | 27.87986 | -82.40786 | 19029 ft | 415 kts | 74° |
| 2026-05-07 19:26 | 27.88943 | -82.37748 | 18597 ft | 407 kts | 64° |
| 2026-05-07 19:26 | 27.90100 | -82.34851 | 18217 ft | 402 kts | 62° |
| 2026-05-07 19:26 | 27.91273 | -82.31999 | 17906 ft | 400 kts | 62° |
| 2026-05-07 19:26 | 27.92440 | -82.29149 | 17619 ft | 399 kts | 63° |
| 2026-05-07 19:27 | 27.93593 | -82.26308 | 17338 ft | 397 kts | 63° |
| 2026-05-07 19:27 | 27.94736 | -82.23476 | 17071 ft | 395 kts | 63° |
| 2026-05-07 19:27 | 27.95855 | -82.20692 | 16793 ft | 393 kts | 63° |
| 2026-05-07 19:27 | 27.96981 | -82.17883 | 16518 ft | 391 kts | 63° |
| 2026-05-07 19:28 | 27.98100 | -82.15088 | 16237 ft | 390 kts | 64° |
| 2026-05-07 19:28 | 27.99215 | -82.12297 | 15934 ft | 388 kts | 64° |
| 2026-05-07 19:28 | 28.00323 | -82.09525 | 15653 ft | 386 kts | 64° |
| 2026-05-07 19:28 | 28.01425 | -82.06763 | 15368 ft | 384 kts | 64° |
| 2026-05-07 19:29 | 28.02510 | -82.04041 | 15176 ft | 373 kts | 64° |
| 2026-05-07 19:29 | 28.03562 | -82.01400 | 14949 ft | 363 kts | 64° |
| 2026-05-07 19:29 | 28.04585 | -81.98830 | 14692 ft | 354 kts | 64° |
| 2026-05-07 19:29 | 28.05575 | -81.96353 | 14441 ft | 346 kts | 64° |
| 2026-05-07 19:30 | 28.06571 | -81.93897 | 14133 ft | 341 kts | 64° |
| 2026-05-07 19:30 | 28.07557 | -81.91476 | 13849 ft | 337 kts | 64° |
| 2026-05-07 19:30 | 28.08537 | -81.89072 | 13588 ft | 336 kts | 64° |
| 2026-05-07 19:30 | 28.09579 | -81.86712 | 13331 ft | 334 kts | 61° |
| 2026-05-07 19:31 | 28.10656 | -81.84385 | 13116 ft | 333 kts | 61° |
| 2026-05-07 19:31 | 28.11739 | -81.82064 | 12875 ft | 332 kts | 61° |
| 2026-05-07 19:31 | 28.12816 | -81.79755 | 12635 ft | 331 kts | 61° |
| 2026-05-07 19:31 | 28.13877 | -81.77483 | 12401 ft | 330 kts | 61° |
| 2026-05-07 19:32 | 28.14949 | -81.75187 | 12174 ft | 329 kts | 61° |
| 2026-05-07 19:32 | 28.16017 | -81.72898 | 11930 ft | 328 kts | 61° |
| 2026-05-07 19:32 | 28.17080 | -81.70617 | 11703 ft | 326 kts | 61° |
| 2026-05-07 19:32 | 28.18138 | -81.68349 | 11473 ft | 325 kts | 61° |
| 2026-05-07 19:33 | 28.19191 | -81.66088 | 11235 ft | 324 kts | 61° |
| 2026-05-07 19:33 | 28.20240 | -81.63834 | 11010 ft | 323 kts | 61° |
| 2026-05-07 19:33 | 28.21286 | -81.61585 | 10772 ft | 321 kts | 62° |
| 2026-05-07 19:33 | 28.22325 | -81.59349 | 10541 ft | 320 kts | 62° |
| 2026-05-07 19:34 | 28.23347 | -81.57150 | 10313 ft | 319 kts | 62° |
| 2026-05-07 19:34 | 28.24382 | -81.54927 | 10063 ft | 318 kts | 60° |
| 2026-05-07 19:34 | 28.25548 | -81.52814 | 9819 ft | 315 kts | 54° |
| 2026-05-07 19:34 | 28.26822 | -81.50798 | 9602 ft | 312 kts | 53° |
| 2026-05-07 19:35 | 28.28080 | -81.48858 | 9430 ft | 300 kts | 52° |
| 2026-05-07 19:35 | 28.29303 | -81.46976 | 9196 ft | 293 kts | 52° |
| 2026-05-07 19:35 | 28.30498 | -81.45131 | 8958 ft | 287 kts | 52° |
| 2026-05-07 19:35 | 28.31798 | -81.43450 | 8693 ft | 279 kts | 36° |
| 2026-05-07 19:36 | 28.33454 | -81.42537 | 8514 ft | 263 kts | 7° |
| 2026-05-07 19:36 | 28.35236 | -81.42355 | 8338 ft | 254 kts | 357° |
| 2026-05-07 19:36 | 28.37004 | -81.42354 | 8142 ft | 254 kts | 355° |
| 2026-05-07 19:36 | 28.38772 | -81.42375 | 7906 ft | 254 kts | 355° |
| 2026-05-07 19:37 | 28.40540 | -81.42391 | 7599 ft | 253 kts | 356° |
| 2026-05-07 19:37 | 28.42291 | -81.42401 | 7357 ft | 250 kts | 356° |
| 2026-05-07 19:37 | 28.44036 | -81.42409 | 7123 ft | 251 kts | 356° |
| 2026-05-07 19:37 | 28.45782 | -81.42414 | 6888 ft | 251 kts | 356° |
| 2026-05-07 19:38 | 28.47523 | -81.42415 | 6660 ft | 250 kts | 356° |
| 2026-05-07 19:38 | 28.49234 | -81.42415 | 6428 ft | 248 kts | 356° |
| 2026-05-07 19:38 | 28.50954 | -81.42415 | 6186 ft | 247 kts | 356° |
| 2026-05-07 19:38 | 28.52662 | -81.42267 | 6047 ft | 246 kts | 11° |
| 2026-05-07 19:39 | 28.54285 | -81.41618 | 6014 ft | 250 kts | 17° |
| 2026-05-07 19:39 | 28.55914 | -81.40929 | 5997 ft | 246 kts | 17° |
| 2026-05-07 19:39 | 28.57499 | -81.40268 | 5827 ft | 241 kts | 17° |
| 2026-05-07 19:39 | 28.59072 | -81.39623 | 5638 ft | 240 kts | 16° |
| 2026-05-07 19:40 | 28.60650 | -81.38985 | 5455 ft | 240 kts | 16° |
| 2026-05-07 19:40 | 28.62226 | -81.38353 | 5285 ft | 240 kts | 16° |
| 2026-05-07 19:40 | 28.63781 | -81.37731 | 5107 ft | 240 kts | 16° |
| 2026-05-07 19:40 | 28.65356 | -81.37100 | 4940 ft | 239 kts | 17° |
| 2026-05-07 19:41 | 28.66842 | -81.36273 | 4750 ft | 239 kts | 30° |
| 2026-05-07 19:41 | 28.68174 | -81.35135 | 4472 ft | 236 kts | 38° |
| 2026-05-07 19:41 | 28.69384 | -81.33945 | 4380 ft | 223 kts | 39° |
| 2026-05-07 19:41 | 28.70475 | -81.32754 | 4251 ft | 214 kts | 50° |
| 2026-05-07 19:42 | 28.71098 | -81.31253 | 4037 ft | 210 kts | 84° |
| 2026-05-07 19:42 | 28.70763 | -81.29709 | 3991 ft | 202 kts | 131° |
| 2026-05-07 19:42 | 28.69660 | -81.28862 | 4004 ft | 195 kts | 163° |
| 2026-05-07 19:42 | 28.68374 | -81.28369 | 3990 ft | 195 kts | 167° |
| 2026-05-07 19:43 | 28.67090 | -81.27871 | 3977 ft | 196 kts | 158° |
| 2026-05-07 19:43 | 28.66127 | -81.26754 | 4009 ft | 202 kts | 129° |
| 2026-05-07 19:43 | 28.65116 | -81.25673 | 3994 ft | 199 kts | 147° |
| 2026-05-07 19:43 | 28.63906 | -81.25016 | 3982 ft | 185 kts | 174° |
| 2026-05-07 19:44 | 28.62749 | -81.25149 | 3971 ft | 156 kts | 209° |
| 2026-05-07 19:44 | 28.61983 | -81.25971 | 3618 ft | 157 kts | 246° |
| 2026-05-07 19:44 | 28.61616 | -81.27138 | 3359 ft | 159 kts | 251° |
| 2026-05-07 19:44 | 28.61298 | -81.28338 | 3173 ft | 157 kts | 255° |
| 2026-05-07 19:45 | 28.61054 | -81.29507 | 3070 ft | 148 kts | 257° |
| 2026-05-07 19:45 | 28.60831 | -81.30623 | 2922 ft | 144 kts | 253° |
| 2026-05-07 19:45 | 28.60447 | -81.31734 | 2875 ft | 157 kts | 240° |
| 2026-05-07 19:45 | 28.59639 | -81.32549 | 2907 ft | 158 kts | 203° |
| 2026-05-07 19:46 | 28.58573 | -81.32785 | 2731 ft | 158 kts | 186° |
| 2026-05-07 19:46 | 28.57474 | -81.32804 | 2513 ft | 157 kts | 185° |
| 2026-05-07 19:46 | 28.56399 | -81.32802 | 2308 ft | 157 kts | 185° |
| 2026-05-07 19:46 | 28.55303 | -81.32795 | 2103 ft | 158 kts | 184° |
| 2026-05-07 19:47 | 28.54212 | -81.32786 | 1906 ft | 155 kts | 184° |
| 2026-05-07 19:47 | 28.53154 | -81.32777 | 1701 ft | 149 kts | 182° |
| 2026-05-07 19:47 | 28.52161 | -81.32765 | 1558 ft | 138 kts | 185° |
| 2026-05-07 19:47 | 28.51225 | -81.32758 | 1362 ft | 133 kts | 183° |
| 2026-05-07 19:48 | 28.50289 | -81.32748 | 1188 ft | 135 kts | 185° |
| 2026-05-07 19:48 | 28.49352 | -81.32739 | 1007 ft | 135 kts | 185° |
| 2026-05-07 19:48 | 28.48412 | -81.32731 | 834 ft | 135 kts | 185° |
| 2026-05-07 19:48 | 28.47493 | -81.32720 | 654 ft | 134 kts | 182° |
| 2026-05-07 19:49 | 28.46554 | -81.32711 | 473 ft | 135 kts | 185° |
| 2026-05-07 19:49 | 28.45624 | -81.32689 | 311 ft | 132 kts | 183° |
| 2026-05-07 19:49 | 28.44716 | -81.32691 | 135 ft | 126 kts | 184° |
| 2026-05-07 19:49 | 28.43932 | -81.32688 | 105 ft | 91 kts | 179° |
| 2026-05-07 19:50 | 28.43476 | -81.32684 | 109 ft | 43 kts | 179° |
| 2026-05-07 19:50 | 28.43217 | -81.32674 | 111 ft | 27 kts | 172° |
| 2026-05-07 19:50 | 28.43082 | -81.32601 | 108 ft | 17 kts | 127° |
| 2026-05-07 19:50 | 28.43057 | -81.32474 | 109 ft | 16 kts | 88° |
| 2026-05-07 19:51 | 28.43058 | -81.32343 | 107 ft | 17 kts | 90° |
| 2026-05-07 19:51 | 28.43058 | -81.32200 | 104 ft | 19 kts | 90° |
| 2026-05-07 19:51 | 28.43087 | -81.32057 | 103 ft | 19 kts | 52° |
| 2026-05-07 19:51 | 28.43160 | -81.31939 | 105 ft | 18 kts | 56° |
| 2026-05-07 19:52 | 28.43229 | -81.31821 | 104 ft | 18 kts | 56° |
| 2026-05-07 19:52 | 28.43286 | -81.31717 | 104 ft | 14 kts | 60° |
| 2026-05-07 19:52 | 28.43329 | -81.31640 | 104 ft | 9 kts | 52° |
| 2026-05-07 19:52 | 28.43350 | -81.31609 | 105 ft | 0 kts | 53° |